Time;durP1;ratioP1;P1;durP2;ratioP2;P2;SDS_P1;SDS_P2;PMS_P1;PMS_P2;Temp;Humidity;BMP_temperature;BMP_pressure;BME280_temperature;BME280_humidity;BME280_pressure;Samples;Min_cycle;Max_cycle;Signal;HPM_P1;HPM_P2
2022/03/30 00:03:04;;;;;;;;;;;;;;;6.01;59.69141;101030;;;;-80
2022/03/30 00:08:13;;;;;;;;;;;;;;;5.93;59.72754;101033.9;;;;-81
2022/03/30 00:13:15;;;;;;;;;;;;;;;5.86;59.66211;101032.9;;;;-80
2022/03/30 00:18:11;;;;;;;;;;;;;;;5.79;59.75098;101030.2;;;;-80
2022/03/30 00:23:06;;;;;;;;;;;;;;;5.75;59.7666;101023.5;;;;-80
2022/03/30 00:24:02;;;;;;;11.7;4.7;;;;;;;;;;;;;-80
2022/03/30 00:28:19;;;;;;;;;;;;;;;5.7;59.61719;101022.2;;;;-79
2022/03/30 00:33:09;;;;;;;;;;;;;;;5.67;59.71289;101016.5;;;;-81
2022/03/30 00:38:07;;;;;;;;;;;;;;;5.61;59.7041;101016;;;;-80
2022/03/30 00:43:03;;;;;;;;;;;;;;;5.58;59.7207;101016.5;;;;-82
2022/03/30 00:48:03;;;;;;;;;;;;;;;5.53;59.73633;101011.6;;;;-80
2022/03/30 00:53:13;;;;;;;;;;;;;;;5.5;59.64453;101001.7;;;;-79
2022/03/30 00:54:15;;;;;;;11.1;4.5;;;;;;;;;;;;;-78
2022/03/30 00:58:23;;;;;;;;;;;;;;;5.47;59.65234;101001.1;;;;-79
2022/03/30 01:03:03;;;;;;;;;;;;;;;5.42;59.57813;101001.3;;;;-81
2022/03/30 01:08:14;;;;;;;;;;;;;;;5.37;59.68164;100999.8;;;;-79
2022/03/30 01:13:07;;;;;;;;;;;;;;;5.33;59.63184;100992.1;;;;-80
2022/03/30 01:18:06;;;;;;;;;;;;;;;5.27;59.66797;100985.2;;;;-80
2022/03/30 01:23:09;;;;;;;;;;;;;;;5.21;59.66895;100974.8;;;;-79
2022/03/30 01:24:02;;;;;;;10.2;4;;;;;;;;;;;;;-80
2022/03/30 01:28:06;;;;;;;;;;;;;;;5.16;59.65234;100975.9;;;;-80
2022/03/30 01:33:03;;;;;;;;;;;;;;;5.1;59.67676;100974.3;;;;-79
2022/03/30 01:38:03;;;;;;;;;;;;;;;5.04;59.82324;100970.8;;;;-79
2022/03/30 01:43:04;;;;;;;;;;;;;;;4.99;59.96973;100961.4;;;;-79
2022/03/30 01:48:05;;;;;;;;;;;;;;;4.93;60.01563;100953.3;;;;-82
2022/03/30 01:53:04;;;;;;;;;;;;;;;4.87;60.00684;100952.1;;;;-80
2022/03/30 01:54:02;;;;;;;9.7;3.8;;;;;;;;;;;;;-81
2022/03/30 01:58:04;;;;;;;;;;;;;;;4.8;60.11914;100947;;;;-79
2022/03/30 02:03:02;;;;;;;;;;;;;;;4.73;60.08691;100934;;;;-80
2022/03/30 02:08:02;;;;;;;;;;;;;;;4.68;60.10254;100931;;;;-76
2022/03/30 02:13:02;;;;;;;;;;;;;;;4.63;60.06152;100923.9;;;;-79
2022/03/30 02:18:02;;;;;;;;;;;;;;;4.56;60.25098;100916.7;;;;-80
2022/03/30 02:23:03;;;;;;;;;;;;;;;4.51;60.24414;100908.2;;;;-81
2022/03/30 02:24:01;;;;;;;8.6;3.5;;;;;;;;;;;;;-79
2022/03/30 02:28:02;;;;;;;;;;;;;;;4.45;60.25684;100901.9;;;;-79
2022/03/30 02:33:05;;;;;;;;;;;;;;;4.42;60.16406;100897.3;;;;-79
2022/03/30 02:38:17;;;;;;;;;;;;;;;4.37;60.30078;100894.5;;;;-80
2022/03/30 02:43:04;;;;;;;;;;;;;;;4.33;60.39258;100888.7;;;;-80
2022/03/30 02:53:08;;;;;;;;;;;;;;;4.22;60.51074;100886.3;;;;-79
2022/03/30 02:54:05;;;;;;;7.6;3.3;;;;;;;;;;;;;-79
2022/03/30 02:58:02;;;;;;;;;;;;;;;4.19;60.35156;100891.2;;;;-81
2022/03/30 03:03:03;;;;;;;;;;;;;;;4.15;60.45605;100880.1;;;;-78
2022/03/30 03:08:03;;;;;;;;;;;;;;;4.11;60.36133;100881.4;;;;-78
2022/03/30 03:13:11;;;;;;;;;;;;;;;4.06;60.47656;100876.9;;;;-81
2022/03/30 03:18:02;;;;;;;;;;;;;;;4.03;60.49316;100874.9;;;;-80
2022/03/30 03:23:10;;;;;;;;;;;;;;;3.95;60.53809;100870.8;;;;-80
2022/03/30 03:24:04;;;;;;;7.9;3.3;;;;;;;;;;;;;-81
2022/03/30 03:28:09;;;;;;;;;;;;;;;3.93;60.59961;100862.6;;;;-79
2022/03/30 03:33:05;;;;;;;;;;;;;;;3.88;60.52734;100863.2;;;;-80
2022/03/30 03:38:08;;;;;;;;;;;;;;;3.85;60.58984;100856.4;;;;-78
2022/03/30 03:43:08;;;;;;;;;;;;;;;3.82;60.47461;100857.2;;;;-79
2022/03/30 03:48:02;;;;;;;;;;;;;;;3.77;60.53418;100852;;;;-80
2022/03/30 03:53:02;;;;;;;;;;;;;;;3.76;60.43457;100848.9;;;;-79
2022/03/30 03:54:01;;;;;;;8.5;3.3;;;;;;;;;;;;;-79
2022/03/30 03:58:05;;;;;;;;;;;;;;;3.75;60.49805;100845.5;;;;-79
2022/03/30 04:03:05;;;;;;;;;;;;;;;3.74;60.4209;100837.4;;;;-78
2022/03/30 04:08:04;;;;;;;;;;;;;;;3.75;60.27832;100846;;;;-78
2022/03/30 04:13:04;;;;;;;;;;;;;;;3.76;60.42285;100840.4;;;;-79
2022/03/30 04:18:03;;;;;;;;;;;;;;;3.81;60.26563;100844.1;;;;-79
2022/03/30 04:24:09;;;;;;;8.3;3.6;;;;;;;;;;;;;-79
2022/03/30 04:28:04;;;;;;;;;;;;;;;3.98;59.98242;100837.8;;;;-80
2022/03/30 04:33:03;;;;;;;;;;;;;;;4.06;60.01465;100835.2;;;;-79
2022/03/30 04:38:03;;;;;;;;;;;;;;;4.13;59.87109;100827.1;;;;-78
2022/03/30 04:43:05;;;;;;;;;;;;;;;4.21;59.88281;100822.3;;;;-79
2022/03/30 04:48:03;;;;;;;;;;;;;;;4.28;59.93652;100825.2;;;;-78
2022/03/30 04:53:02;;;;;;;;;;;;;;;4.34;59.76855;100821.4;;;;-79
2022/03/30 04:54:02;;;;;;;9.2;3.4;;;;;;;;;;;;;-79
2022/03/30 04:58:13;;;;;;;;;;;;;;;4.39;59.60059;100815.8;;;;-80
2022/03/30 05:03:04;;;;;;;;;;;;;;;4.5;59.50586;100818.7;;;;-80
2022/03/30 05:08:06;;;;;;;;;;;;;;;4.56;59.55859;100812.1;;;;-80
2022/03/30 05:13:04;;;;;;;;;;;;;;;4.59;59.38867;100811.4;;;;-80
2022/03/30 05:18:02;;;;;;;;;;;;;;;4.59;59.40918;100808.1;;;;-79
2022/03/30 05:23:10;;;;;;;;;;;;;;;4.58;59.29785;100809.6;;;;-80
2022/03/30 05:24:01;;;;;;;8.8;3.7;;;;;;;;;;;;;-80
2022/03/30 05:28:04;;;;;;;;;;;;;;;4.57;59.49414;100811.6;;;;-81
2022/03/30 05:33:03;;;;;;;;;;;;;;;4.6;59.36621;100805.6;;;;-79
2022/03/30 05:38:02;;;;;;;;;;;;;;;4.64;59.37109;100805.6;;;;-80
2022/03/30 05:43:02;;;;;;;;;;;;;;;4.68;59.38867;100809;;;;-79
2022/03/30 05:48:04;;;;;;;;;;;;;;;4.74;59.53906;100801.6;;;;-79
2022/03/30 05:53:04;;;;;;;;;;;;;;;4.8;59.52539;100804.3;;;;-80
2022/03/30 05:54:08;;;;;;;9.2;3.4;;;;;;;;;;;;;-81
2022/03/30 05:58:20;;;;;;;;;;;;;;;4.89;59.99023;100799.9;;;;-80
2022/03/30 06:03:04;;;;;;;;;;;;;;;4.99;60.92578;100799.8;;;;-80
2022/03/30 06:08:09;;;;;;;;;;;;;;;5.11;61.20605;100804.4;;;;-79
2022/03/30 06:13:02;;;;;;;;;;;;;;;5.21;63.12109;100806.6;;;;-79
2022/03/30 06:18:03;;;;;;;;;;;;;;;5.31;63.32227;100810.8;;;;-81
2022/03/30 06:23:02;;;;;;;;;;;;;;;5.41;63.0752;100817.2;;;;-80
2022/03/30 06:24:18;;;;;;;4.2;1.8;;;;;;;;;;;;;-80
2022/03/30 06:28:05;;;;;;;;;;;;;;;5.51;63.61523;100817.3;;;;-79
2022/03/30 06:33:03;;;;;;;;;;;;;;;5.6;63.62891;100821;;;;-81
2022/03/30 06:38:05;;;;;;;;;;;;;;;5.7;63.75391;100818.8;;;;-78
2022/03/30 06:43:02;;;;;;;;;;;;;;;5.81;63.51563;100812.7;;;;-80
2022/03/30 06:48:02;;;;;;;;;;;;;;;5.95;63.57031;100810.7;;;;-80
2022/03/30 06:51:10;;;;;;;;;;;;;;;6.02;63.58105;100808.5;;;;-81
2022/03/30 06:54:12;;;;;;;2.5;1.1;;;;;;;;;;;;;-79
2022/03/30 06:56:13;;;;;;;;;;;;;;;6.18;63.39551;100808.7;;;;-80
2022/03/30 07:01:14;;;;;;;;;;;;;;;6.36;63.3457;100813.8;;;;-79
2022/03/30 07:06:18;;;;;;;;;;;;;;;6.55;62.97559;100807.3;;;;-80
2022/03/30 07:11:02;;;;;;;;;;;;;;;6.72;62.90137;100803.8;;;;-80
2022/03/30 07:16:14;;;;;;;;;;;;;;;6.86;62.44727;100800.6;;;;-79
2022/03/30 07:21:02;;;;;;;;;;;;;;;7.02;62.08496;100802.8;;;;-79
2022/03/30 07:24:06;;;;;;;1.9;0.8;;;;;;;;;;;;;-80
2022/03/30 07:26:06;;;;;;;;;;;;;;;7.18;61.84277;100793.5;;;;-80
2022/03/30 07:31:02;;;;;;;;;;;;;;;7.34;61.63379;100794.3;;;;-79
2022/03/30 07:36:02;;;;;;;;;;;;;;;7.48;61.31055;100784.3;;;;-80
2022/03/30 07:41:06;;;;;;;;;;;;;;;7.62;61.0752;100783.8;;;;-79
2022/03/30 07:46:04;;;;;;;;;;;;;;;7.75;60.7627;100780.8;;;;-77
2022/03/30 07:51:15;;;;;;;;;;;;;;;7.91;60.23242;100788;;;;-75
2022/03/30 07:54:04;;;;;;;1.5;0.8;;;;;;;;;;;;;-75
2022/03/30 07:56:07;;;;;;;;;;;;;;;8.05;59.79785;100777.8;;;;-76
2022/03/30 08:01:03;;;;;;;;;;;;;;;8.18;59.57227;100775.2;;;;-75
2022/03/30 08:06:07;;;;;;;;;;;;;;;8.35;59.42871;100773.1;;;;-79
2022/03/30 08:11:06;;;;;;;;;;;;;;;8.52;59.30957;100774.2;;;;-76
2022/03/30 08:24:06;;;;;;;2;0.9;;;;;;;;;;;;;-77
2022/03/30 08:35:55;;;;;;;;;;;;;;;9.55;57.53906;100775;;;;-82
2022/03/30 08:40:57;;;;;;;;;;;;;;;9.68;57.54492;100772.1;;;;-81
2022/03/30 08:46:00;;;;;;;;;;;;;;;9.8;57.19434;100767.1;;;;-82
2022/03/30 08:50:57;;;;;;;;;;;;;;;9.92;57.0752;100758.6;;;;-82
2022/03/30 08:54:06;;;;;;;2.1;0.7;;;;;;;;;;;;;-83
2022/03/30 08:55:54;;;;;;;;;;;;;;;10.14;56.95996;100755.2;;;;-84
2022/03/30 09:00:55;;;;;;;;;;;;;;;10.47;56.54688;100756.4;;;;-83
2022/03/30 09:05:56;;;;;;;;;;;;;;;10.7;55.91797;100752.7;;;;-83
2022/03/30 09:10:56;;;;;;;;;;;;;;;10.75;55.69141;100754.6;;;;-85
2022/03/30 09:15:55;;;;;;;;;;;;;;;10.87;55.7959;100760.8;;;;-83
2022/03/30 09:20:58;;;;;;;;;;;;;;;11.02;55.4248;100758.3;;;;-84
2022/03/30 09:24:20;;;;;;;2.7;0.6;;;;;;;;;;;;;-86
2022/03/30 09:25:54;;;;;;;;;;;;;;;11.15;55.07227;100756.7;;;;-83
2022/03/30 09:30:56;;;;;;;;;;;;;;;11.4;55.14844;100761.1;;;;-85
2022/03/30 09:35:55;;;;;;;;;;;;;;;11.66;54.27637;100763.3;;;;-87
2022/03/30 09:40:58;;;;;;;;;;;;;;;11.86;53.85352;100766.2;;;;-85
2022/03/30 09:46:06;;;;;;;;;;;;;;;11.95;53.25;100765.9;;;;-87
2022/03/30 09:50:55;;;;;;;;;;;;;;;12.01;53.05469;100755.3;;;;-86
2022/03/30 09:54:07;;;;;;;1.6;0.8;;;;;;;;;;;;;-82
2022/03/30 09:56:05;;;;;;;;;;;;;;;12.04;52.82422;100745.6;;;;-84
2022/03/30 10:01:09;;;;;;;;;;;;;;;12.13;52.92383;100740.1;;;;-83
2022/03/30 10:05:55;;;;;;;;;;;;;;;12.3;52.79883;100741.2;;;;-84
2022/03/30 10:10:56;;;;;;;;;;;;;;;12.51;52.57715;100733.6;;;;-84
2022/03/30 10:16:09;;;;;;;;;;;;;;;12.74;52.07813;100725.2;;;;-84
2022/03/30 10:20:54;;;;;;;;;;;;;;;12.91;51.50488;100731.3;;;;-84
2022/03/30 10:24:15;;;;;;;2.3;0.9;;;;;;;;;;;;;-84
2022/03/30 10:26:13;;;;;;;;;;;;;;;13.13;51.5293;100731.8;;;;-85
2022/03/30 10:30:58;;;;;;;;;;;;;;;13.27;50.88281;100736.4;;;;-82
2022/03/30 10:35:56;;;;;;;;;;;;;;;13.27;50.74902;100732.7;;;;-84
2022/03/30 10:41:04;;;;;;;;;;;;;;;13.25;50.55566;100727.3;;;;-83
2022/03/30 10:46:04;;;;;;;;;;;;;;;13.24;50.63281;100724.8;;;;-85
2022/03/30 10:50:55;;;;;;;;;;;;;;;13.27;50.85059;100717;;;;-84
2022/03/30 10:54:09;;;;;;;2.5;0.8;;;;;;;;;;;;;-84
2022/03/30 10:55:53;;;;;;;;;;;;;;;13.39;50.7959;100720;;;;-85
2022/03/30 11:01:09;;;;;;;;;;;;;;;13.44;49.94922;100719.3;;;;-85
2022/03/30 11:06:07;;;;;;;;;;;;;;;13.5;51.19141;100715.5;;;;-83
2022/03/30 11:10:54;;;;;;;;;;;;;;;13.56;50.56836;100707.8;;;;-84
2022/03/30 11:16:07;;;;;;;;;;;;;;;13.57;50.44727;100695.3;;;;-84
2022/03/30 11:21:05;;;;;;;;;;;;;;;13.64;51.71289;100694.6;;;;-85
2022/03/30 11:24:14;;;;;;;2.5;0.8;;;;;;;;;;;;;-86
2022/03/30 11:26:00;;;;;;;;;;;;;;;13.76;51.10938;100684.7;;;;-83
2022/03/30 11:31:01;;;;;;;;;;;;;;;13.86;52.18945;100688.1;;;;-82
2022/03/30 11:35:57;;;;;;;;;;;;;;;13.95;51.5918;100682.1;;;;-82
2022/03/30 11:41:05;;;;;;;;;;;;;;;14.04;52.1543;100677.1;;;;-84
2022/03/30 11:46:00;;;;;;;;;;;;;;;14.18;52.72168;100673.6;;;;-83
2022/03/30 11:50:58;;;;;;;;;;;;;;;14.34;52.42578;100669.9;;;;-84
2022/03/30 11:54:20;;;;;;;2.6;0.9;;;;;;;;;;;;;-85
2022/03/30 11:55:59;;;;;;;;;;;;;;;14.45;51.50488;100658.6;;;;-85
2022/03/30 12:00:57;;;;;;;;;;;;;;;14.51;51.89551;100655.6;;;;-84
2022/03/30 12:05:56;;;;;;;;;;;;;;;14.65;52.22656;100655.5;;;;-85
2022/03/30 12:10:55;;;;;;;;;;;;;;;14.77;52.48828;100647.5;;;;-84
2022/03/30 12:16:03;;;;;;;;;;;;;;;14.89;52.05273;100642.2;;;;-84
2022/03/30 12:21:03;;;;;;;;;;;;;;;14.98;51.99609;100630.1;;;;-83
2022/03/30 12:24:21;;;;;;;2.5;0.8;;;;;;;;;;;;;-85
2022/03/30 12:25:54;;;;;;;;;;;;;;;15.11;51.96582;100638;;;;-86
2022/03/30 12:31:00;;;;;;;;;;;;;;;15.23;52.16016;100637.9;;;;-85
2022/03/30 12:35:55;;;;;;;;;;;;;;;15.35;52.32227;100635.5;;;;-84
2022/03/30 12:40:56;;;;;;;;;;;;;;;15.48;52.35938;100629.1;;;;-84
2022/03/30 12:46:00;;;;;;;;;;;;;;;15.65;51.98438;100621.2;;;;-83
2022/03/30 12:50:54;;;;;;;;;;;;;;;15.79;51.60547;100614.3;;;;-84
2022/03/30 12:54:27;;;;;;;2.4;0.7;;;;;;;;;;;;;-82
2022/03/30 12:55:54;;;;;;;;;;;;;;;15.89;51.97754;100609;;;;-87
2022/03/30 13:00:55;;;;;;;;;;;;;;;15.94;51.41992;100607.6;;;;-85
2022/03/30 13:06:06;;;;;;;;;;;;;;;15.97;51.55859;100603.3;;;;-85
2022/03/30 13:10:56;;;;;;;;;;;;;;;16.05;51.71484;100595.3;;;;-84
2022/03/30 13:15:54;;;;;;;;;;;;;;;16.22;52.08398;100596.3;;;;-84
2022/03/30 13:21:04;;;;;;;;;;;;;;;16.32;51.29492;100593.2;;;;-83
2022/03/30 13:24:20;;;;;;;3.9;1;;;;;;;;;;;;;-86
2022/03/30 13:26:00;;;;;;;;;;;;;;;16.38;51.22266;100583.4;;;;-83
2022/03/30 13:30:54;;;;;;;;;;;;;;;16.46;50.8916;100576;;;;-84
2022/03/30 13:35:55;;;;;;;;;;;;;;;16.49;50.44238;100571.4;;;;-83
2022/03/30 13:40:56;;;;;;;;;;;;;;;16.39;49.42383;100564.7;;;;-84
2022/03/30 13:45:56;;;;;;;;;;;;;;;16.3;49.07422;100567.5;;;;-85
2022/03/30 13:50:59;;;;;;;;;;;;;;;16.18;48.63086;100554;;;;-85
2022/03/30 13:54:19;;;;;;;2.4;1;;;;;;;;;;;;;-85
2022/03/30 13:55:54;;;;;;;;;;;;;;;16.11;49.09961;100547.9;;;;-83
2022/03/30 14:00:56;;;;;;;;;;;;;;;16.05;48.41406;100541.1;;;;-84
2022/03/30 14:05:55;;;;;;;;;;;;;;;16.02;48.20605;100538.6;;;;-84
2022/03/30 14:10:56;;;;;;;;;;;;;;;16.01;48.75879;100528.6;;;;-85
2022/03/30 14:15:57;;;;;;;;;;;;;;;16.1;48.54395;100527;;;;-84
2022/03/30 14:20:54;;;;;;;;;;;;;;;16.11;48.11523;100514.6;;;;-84
2022/03/30 14:24:24;;;;;;;2.6;1;;;;;;;;;;;;;-84
2022/03/30 14:25:56;;;;;;;;;;;;;;;16.05;47.81348;100513.4;;;;-82
2022/03/30 14:31:03;;;;;;;;;;;;;;;15.98;48.15625;100519.8;;;;-84
2022/03/30 14:35:57;;;;;;;;;;;;;;;15.95;47.95117;100514.3;;;;-82
2022/03/30 14:40:56;;;;;;;;;;;;;;;15.87;47.61328;100515.5;;;;-83
2022/03/30 14:46:00;;;;;;;;;;;;;;;15.75;47.93945;100500.5;;;;-83
2022/03/30 14:51:09;;;;;;;;;;;;;;;15.66;48.28027;100499.9;;;;-85
2022/03/30 14:54:26;;;;;;;2.9;1;;;;;;;;;;;;;-83
2022/03/30 14:55:55;;;;;;;;;;;;;;;15.59;48.125;100499.7;;;;-82
2022/03/30 15:00:57;;;;;;;;;;;;;;;15.52;48.20898;100500.6;;;;-83
2022/03/30 15:05:54;;;;;;;;;;;;;;;15.41;47.92578;100492.8;;;;-81
2022/03/30 15:10:54;;;;;;;;;;;;;;;15.25;47.94141;100492.2;;;;-83
2022/03/30 15:15:54;;;;;;;;;;;;;;;15.12;48.04004;100486.9;;;;-82
2022/03/30 15:20:54;;;;;;;;;;;;;;;14.98;48.19434;100481.4;;;;-84
2022/03/30 15:24:26;;;;;;;2.6;1.1;;;;;;;;;;;;;-82
2022/03/30 15:25:54;;;;;;;;;;;;;;;14.84;48.31445;100476.4;;;;-83
2022/03/30 15:30:53;;;;;;;;;;;;;;;14.73;48.29102;100469;;;;-83
2022/03/30 15:35:54;;;;;;;;;;;;;;;14.63;48.08984;100468.2;;;;-84
2022/03/30 15:40:54;;;;;;;;;;;;;;;14.5;48.23242;100472.3;;;;-83
2022/03/30 15:45:56;;;;;;;;;;;;;;;14.34;47.9209;100471.3;;;;-85
2022/03/30 15:50:54;;;;;;;;;;;;;;;14.18;47.88086;100473.3;;;;-82
2022/03/30 15:54:35;;;;;;;1.7;0.9;;;;;;;;;;;;;-84
2022/03/30 15:55:54;;;;;;;;;;;;;;;13.98;48.09668;100473.1;;;;-84
2022/03/30 16:00:54;;;;;;;;;;;;;;;13.84;48.35059;100470.1;;;;-83
2022/03/30 16:05:56;;;;;;;;;;;;;;;13.67;48.10742;100475.6;;;;-84
2022/03/30 16:12:09;;;;;;;;;;;;;;;13.53;48.22656;100474.3;;;;-81
2022/03/30 16:15:54;;;;;;;;;;;;;;;13.41;48.50586;100470.7;;;;-83
2022/03/30 16:20:54;;;;;;;;;;;;;;;13.31;48.48242;100466.2;;;;-83
2022/03/30 16:24:30;;;;;;;2.2;1.1;;;;;;;;;;;;;-83
2022/03/30 16:25:54;;;;;;;;;;;;;;;13.21;47.14648;100464.4;;;;-84
2022/03/30 16:30:53;;;;;;;;;;;;;;;13.07;48.16406;100466.1;;;;-83
2022/03/30 16:35:54;;;;;;;;;;;;;;;12.89;48.23535;100465.9;;;;-82
2022/03/30 16:40:55;;;;;;;;;;;;;;;12.69;48.51758;100465.3;;;;-82
2022/03/30 16:45:55;;;;;;;;;;;;;;;12.51;48.83301;100469.4;;;;-84
2022/03/30 16:50:56;;;;;;;;;;;;;;;12.35;49.15039;100469.2;;;;-83
2022/03/30 16:54:34;;;;;;;3.2;0.9;;;;;;;;;;;;;-84
2022/03/30 16:55:54;;;;;;;;;;;;;;;12.17;49.0752;100470.2;;;;-83
2022/03/30 17:01:01;;;;;;;;;;;;;;;12;49.34766;100465.8;;;;-85
2022/03/30 17:05:54;;;;;;;;;;;;;;;11.83;49.1709;100456.4;;;;-81
2022/03/30 17:10:55;;;;;;;;;;;;;;;11.65;49.41992;100460.1;;;;-84
2022/03/30 17:15:59;;;;;;;;;;;;;;;11.46;49.49805;100463.5;;;;-83
2022/03/30 17:20:54;;;;;;;;;;;;;;;11.25;49.30762;100458;;;;-83
2022/03/30 17:24:36;;;;;;;2.7;0.9;;;;;;;;;;;;;-84
2022/03/30 17:25:55;;;;;;;;;;;;;;;11.08;49.51172;100467.1;;;;-84
2022/03/30 17:30:55;;;;;;;;;;;;;;;10.9;49.50293;100463.6;;;;-84
2022/03/30 17:35:58;;;;;;;;;;;;;;;10.72;49.87207;100464.5;;;;-82
2022/03/30 17:40:54;;;;;;;;;;;;;;;10.56;49.76563;100467.5;;;;-82
2022/03/30 17:45:55;;;;;;;;;;;;;;;10.4;49.99219;100472.1;;;;-83
2022/03/30 17:54:36;;;;;;;2.4;0.7;;;;;;;;;;;;;-82
2022/03/30 17:55:55;;;;;;;;;;;;;;;10.1;50.4043;100485.1;;;;-81
2022/03/30 18:00:58;;;;;;;;;;;;;;;9.91;50.61621;100482.5;;;;-83
2022/03/30 18:05:54;;;;;;;;;;;;;;;9.72;50.91797;100481;;;;-83
2022/03/30 18:10:54;;;;;;;;;;;;;;;9.54;51.1748;100488.3;;;;-82
2022/03/30 18:16:00;;;;;;;;;;;;;;;9.37;51.45508;100487.1;;;;-82
2022/03/30 18:21:00;;;;;;;;;;;;;;;9.23;51.7168;100491;;;;-84
2022/03/30 18:24:39;;;;;;;3.2;0.7;;;;;;;;;;;;;-82
2022/03/30 18:25:55;;;;;;;;;;;;;;;9.06;51.97461;100484.5;;;;-85
2022/03/30 18:31:04;;;;;;;;;;;;;;;8.91;52.24609;100482.9;;;;-83
2022/03/30 18:35:54;;;;;;;;;;;;;;;8.79;52.4082;100486.3;;;;-83
2022/03/30 18:40:54;;;;;;;;;;;;;;;8.66;52.69238;100487.8;;;;-83
2022/03/30 18:45:54;;;;;;;;;;;;;;;8.55;52.8457;100483.9;;;;-85
2022/03/30 18:51:15;;;;;;;;;;;;;;;8.48;53.19238;100497.4;;;;-87
2022/03/30 18:54:44;;;;;;;2.6;0.8;;;;;;;;;;;;;-84
2022/03/30 18:56:00;;;;;;;;;;;;;;;8.39;53.28125;100508.4;;;;-83
2022/03/30 19:00:55;;;;;;;;;;;;;;;8.27;53.45508;100507.2;;;;-85
2022/03/30 19:05:54;;;;;;;;;;;;;;;8.14;53.61719;100508.8;;;;-84
2022/03/30 19:10:54;;;;;;;;;;;;;;;8.03;53.79102;100504.4;;;;-82
2022/03/30 19:16:00;;;;;;;;;;;;;;;7.92;53.9873;100516;;;;-83
2022/03/30 19:21:05;;;;;;;;;;;;;;;7.79;54.17285;100525.2;;;;-83
2022/03/30 19:24:38;;;;;;;2.1;0.6;;;;;;;;;;;;;-84
2022/03/30 19:25:54;;;;;;;;;;;;;;;7.65;54.45313;100517.1;;;;-83
2022/03/30 19:30:55;;;;;;;;;;;;;;;7.52;54.66992;100512.6;;;;-83
2022/03/30 19:35:54;;;;;;;;;;;;;;;7.42;54.73438;100528.5;;;;-82
2022/03/30 19:40:54;;;;;;;;;;;;;;;7.31;54.9873;100534.3;;;;-84
2022/03/30 19:45:56;;;;;;;;;;;;;;;7.16;55.31055;100535.7;;;;-83
2022/03/30 19:50:54;;;;;;;;;;;;;;;7.06;55.59473;100537.4;;;;-84
2022/03/30 19:54:39;;;;;;;1.3;0.5;;;;;;;;;;;;;-83
2022/03/30 19:55:54;;;;;;;;;;;;;;;6.96;55.96875;100532.9;;;;-84
2022/03/30 20:00:54;;;;;;;;;;;;;;;6.85;56.26465;100534;;;;-83
2022/03/30 20:05:54;;;;;;;;;;;;;;;6.75;56.25098;100536.4;;;;-83
2022/03/30 20:10:56;;;;;;;;;;;;;;;6.66;56.85938;100543;;;;-83
2022/03/30 20:15:55;;;;;;;;;;;;;;;6.56;56.97852;100545.5;;;;-84
2022/03/30 20:20:55;;;;;;;;;;;;;;;6.51;57.03711;100538.8;;;;-83
2022/03/30 20:24:49;;;;;;;2.1;0.5;;;;;;;;;;;;;-83
2022/03/30 20:25:54;;;;;;;;;;;;;;;6.41;57.44336;100542.8;;;;-84
2022/03/30 20:30:55;;;;;;;;;;;;;;;6.32;57.62988;100540.2;;;;-80
2022/03/30 20:35:55;;;;;;;;;;;;;;;6.28;57.83301;100547.3;;;;-82
2022/03/30 20:40:55;;;;;;;;;;;;;;;6.18;58.36035;100545.7;;;;-83
2022/03/30 20:45:55;;;;;;;;;;;;;;;6.06;58.63184;100546.6;;;;-80
2022/03/30 20:50:56;;;;;;;;;;;;;;;5.99;58.89746;100543.8;;;;-82
2022/03/30 20:54:39;;;;;;;1;0.4;;;;;;;;;;;;;-80
2022/03/30 20:56:03;;;;;;;;;;;;;;;5.93;59.35059;100540.2;;;;-84
2022/03/30 21:00:53;;;;;;;;;;;;;;;5.84;60.88184;100534.6;;;;-82
2022/03/30 21:05:54;;;;;;;;;;;;;;;5.79;60.98535;100531.1;;;;-81
2022/03/30 21:10:59;;;;;;;;;;;;;;;5.73;60.49023;100527.1;;;;-82
2022/03/30 21:15:57;;;;;;;;;;;;;;;5.68;60.15332;100521.1;;;;-83
2022/03/30 21:20:54;;;;;;;;;;;;;;;5.61;60.17676;100525.8;;;;-83
2022/03/30 21:26:04;;;;;;;;;;;;;;;5.57;60.02734;100517.5;;;;-85
2022/03/30 21:31:18;;;;;;;;;;;;;;;5.51;60.31738;100528;;;;-87
2022/03/30 21:35:55;;;;;;;;;;;;;;;5.43;60.60352;100523.4;;;;-83
2022/03/30 21:41:07;;;;;;;;;;;;;;;5.39;60.81641;100522.5;;;;-86
2022/03/30 21:46:05;;;;;;;;;;;;;;;5.34;60.96387;100532;;;;-84
2022/03/30 21:51:17;;;;;;;;;;;;;;;5.28;61.03125;100530.1;;;;-86
2022/03/30 21:54:43;;;;;;;1.3;0.5;;;;;;;;;;;;;-85
2022/03/30 21:55:54;;;;;;;;;;;;;;;5.26;60.78711;100536.7;;;;-84
2022/03/30 22:01:09;;;;;;;;;;;;;;;5.23;60.9043;100543.6;;;;-86
2022/03/30 22:05:56;;;;;;;;;;;;;;;5.15;60.93652;100544.1;;;;-84
2022/03/30 22:11:00;;;;;;;;;;;;;;;5.13;60.71387;100550.9;;;;-82
2022/03/30 22:16:03;;;;;;;;;;;;;;;5.08;61.06934;100540.9;;;;-85
2022/03/30 22:21:03;;;;;;;;;;;;;;;4.99;61.31055;100542.6;;;;-85
2022/03/30 22:24:47;;;;;;;2.4;0.5;;;;;;;;;;;;;-85
2022/03/30 22:25:54;;;;;;;;;;;;;;;4.92;61.74023;100537.1;;;;-82
2022/03/30 22:31:00;;;;;;;;;;;;;;;4.86;61.83008;100532.7;;;;-85
2022/03/30 22:35:54;;;;;;;;;;;;;;;4.85;61.54297;100532.6;;;;-84
2022/03/30 22:41:15;;;;;;;;;;;;;;;4.8;61.54688;100535.9;;;;-84
2022/03/30 22:46:05;;;;;;;;;;;;;;;4.76;61.75977;100538.6;;;;-85
2022/03/30 22:50:54;;;;;;;;;;;;;;;4.7;61.89453;100540.8;;;;-86
2022/03/30 22:54:47;;;;;;;0.9;0.5;;;;;;;;;;;;;-83
2022/03/30 22:56:00;;;;;;;;;;;;;;;4.66;61.73535;100534.1;;;;-83
2022/03/30 23:00:54;;;;;;;;;;;;;;;4.64;61.86328;100536.1;;;;-83
2022/03/30 23:11:07;;;;;;;;;;;;;;;4.59;61.86621;100522.8;;;;-86
2022/03/30 23:15:59;;;;;;;;;;;;;;;4.52;62.29688;100531.2;;;;-85
2022/03/30 23:20:53;;;;;;;;;;;;;;;4.47;62.47461;100528.3;;;;-84
2022/03/30 23:24:50;;;;;;;0.8;0.4;;;;;;;;;;;;;-81
2022/03/30 23:25:53;;;;;;;;;;;;;;;4.48;62.41113;100535.6;;;;-80
2022/03/30 23:36:13;;;;;;;;;;;;;;;4.38;62.95605;100531;;;;-84
2022/03/30 23:41:04;;;;;;;;;;;;;;;4.34;62.9834;100529.6;;;;-81
2022/03/30 23:46:04;;;;;;;;;;;;;;;4.29;62.66895;100529.8;;;;-84
2022/03/30 23:54:48;;;;;;;1.3;0.5;;;;;;;;;;;;;-81
2022/03/30 23:55:59;;;;;;;;;;;;;;;4.24;62.90332;100526.3;;;;-83
